Time;durP1;ratioP1;P1;durP2;ratioP2;P2;SDS_P1;SDS_P2;PMS_P1;PMS_P2;Temp;Humidity;BMP_temperature;BMP_pressure;BME280_temperature;BME280_humidity;BME280_pressure;Samples;Min_cycle;Max_cycle;Signal;HPM_P1;HPM_P2
2022/07/15 00:00:32;;;;;;;2.50;2.20;;;17.50;99.90;;;;;;5091208;28;20492;-73
2022/07/15 00:02:59;;;;;;;1.90;1.37;;;17.40;99.90;;;;;;5097586;28;20817;-73
2022/07/15 00:05:26;;;;;;;4.20;2.37;;;17.30;99.90;;;;;;5092975;28;20482;-73
2022/07/15 00:07:53;;;;;;;3.97;2.60;;;17.50;99.90;;;;;;5094202;28;21057;-73
2022/07/15 00:10:23;;;;;;;2.50;1.70;;;17.50;99.90;;;;;;5094748;28;20456;-73
2022/07/15 00:12:51;;;;;;;5.53;2.10;;;17.50;99.90;;;;;;5087430;28;20473;-73
2022/07/15 00:15:20;;;;;;;2.23;1.70;;;17.50;99.90;;;;;;5092589;28;20453;-73
2022/07/15 00:17:47;;;;;;;3.70;2.17;;;17.50;99.90;;;;;;5097652;28;20553;-72
2022/07/15 00:20:15;;;;;;;2.03;1.40;;;17.50;99.90;;;;;;5093864;28;20602;-73
2022/07/15 00:22:43;;;;;;;4.77;2.23;;;17.60;99.90;;;;;;5090490;28;20483;-73
2022/07/15 00:25:11;;;;;;;3.60;2.50;;;17.40;99.90;;;;;;5092172;28;20576;-71
2022/07/15 00:27:51;;;;;;;1.73;1.57;;;17.70;99.90;;;;;;5091944;28;20962;-72
2022/07/15 00:30:18;;;;;;;2.93;2.20;;;17.80;99.90;;;;;;5087411;28;20467;-72
2022/07/15 00:32:45;;;;;;;4.23;1.77;;;17.80;99.90;;;;;;5087451;28;20465;-72
2022/07/15 00:35:14;;;;;;;2.80;2.33;;;17.50;99.90;;;;;;5096152;28;20952;-72
2022/07/15 00:37:42;;;;;;;2.43;2.23;;;17.30;99.90;;;;;;5091962;28;21187;-72
2022/07/15 00:40:09;;;;;;;4.20;2.10;;;17.00;99.90;;;;;;5090170;28;20471;-73
2022/07/15 00:42:45;;;;;;;6.40;2.17;;;17.00;99.90;;;;;;5091294;28;20460;-72
2022/07/15 00:45:14;;;;;;;2.93;2.00;;;17.20;99.90;;;;;;5087373;28;20481;-72
2022/07/15 00:47:42;;;;;;;3.13;2.27;;;17.30;99.90;;;;;;5092724;28;20457;-72
2022/07/15 00:50:09;;;;;;;2.47;2.03;;;17.40;99.90;;;;;;5081671;28;20453;-72
2022/07/15 00:52:40;;;;;;;3.13;2.30;;;17.20;99.90;;;;;;5091328;28;20469;-72
2022/07/15 00:55:10;;;;;;;2.03;1.70;;;17.10;99.90;;;;;;5091266;28;20936;-72
2022/07/15 00:57:40;;;;;;;4.70;1.60;;;17.20;99.90;;;;;;5092352;28;20454;-73
2022/07/15 01:00:10;;;;;;;3.47;2.23;;;17.20;99.90;;;;;;5097038;28;20454;-72
2022/07/15 01:02:39;;;;;;;2.20;1.63;;;17.20;99.90;;;;;;5091689;28;20440;-72
2022/07/15 01:05:10;;;;;;;5.57;2.10;;;17.10;99.90;;;;;;5089443;28;20505;-73
2022/07/15 01:07:38;;;;;;;3.57;2.07;;;17.10;99.90;;;;;;5092320;28;20491;-72
2022/07/15 01:10:06;;;;;;;4.67;2.73;;;17.10;99.90;;;;;;5085800;28;20469;-72
2022/07/15 01:12:34;;;;;;;7.23;2.07;;;17.30;99.90;;;;;;5088223;28;20457;-72
2022/07/15 01:15:01;;;;;;;3.33;1.80;;;17.20;99.90;;;;;;5084538;28;20424;-73
2022/07/15 01:17:28;;;;;;;4.93;2.03;;;17.30;99.90;;;;;;5092786;28;20458;-72
2022/07/15 01:19:56;;;;;;;3.10;1.63;;;17.30;99.90;;;;;;5080824;28;20512;-72
2022/07/15 01:22:25;;;;;;;4.27;2.37;;;17.10;99.90;;;;;;5091179;28;20463;-72
2022/07/15 01:24:53;;;;;;;6.57;2.07;;;17.10;99.90;;;;;;5091394;28;20999;-73
2022/07/15 01:27:20;;;;;;;4.10;1.83;;;17.10;99.90;;;;;;5094502;28;20524;-72
2022/07/15 01:29:47;;;;;;;2.67;2.00;;;17.10;99.90;;;;;;5096506;28;20533;-72
2022/07/15 01:32:14;;;;;;;5.90;2.03;;;17.00;99.90;;;;;;5090008;28;20473;-72
2022/07/15 01:34:41;;;;;;;3.63;2.20;;;17.00;99.90;;;;;;5089871;28;20457;-72
2022/07/15 01:37:08;;;;;;;3.23;2.00;;;17.00;99.90;;;;;;5090413;28;20989;-72
2022/07/15 01:39:36;;;;;;;3.97;2.07;;;16.90;99.90;;;;;;5087772;28;20466;-72
2022/07/15 01:42:03;;;;;;;4.27;2.20;;;16.80;99.90;;;;;;5085115;28;20854;-72
2022/07/15 01:44:30;;;;;;;5.03;2.10;;;16.60;99.90;;;;;;5090794;28;20461;-72
2022/07/15 01:46:57;;;;;;;3.10;2.17;;;16.60;99.90;;;;;;5092221;28;20686;-72
2022/07/15 01:49:25;;;;;;;4.27;2.00;;;16.70;99.90;;;;;;5091611;28;20487;-72
2022/07/15 01:51:53;;;;;;;4.73;1.80;;;17.00;99.90;;;;;;5087084;28;20488;-72
2022/07/15 01:54:20;;;;;;;2.90;2.27;;;17.00;99.90;;;;;;5084116;28;21132;-72
2022/07/15 01:56:49;;;;;;;4.93;1.80;;;17.10;99.90;;;;;;5092690;28;20938;-72
2022/07/15 01:59:16;;;;;;;2.23;2.03;;;17.10;99.90;;;;;;5085435;28;20809;-72
2022/07/15 02:01:43;;;;;;;6.23;2.30;;;17.00;99.90;;;;;;5086467;28;20549;-73
2022/07/15 02:04:10;;;;;;;5.63;1.93;;;16.60;99.90;;;;;;5091485;28;20802;-73
2022/07/15 02:06:37;;;;;;;7.00;2.80;;;16.60;99.90;;;;;;5096009;28;20493;-73
2022/07/15 02:09:04;;;;;;;4.67;2.43;;;16.60;99.90;;;;;;5091925;28;20454;-72
2022/07/15 02:11:32;;;;;;;7.00;2.43;;;16.30;99.90;;;;;;5091311;28;20473;-72
2022/07/15 02:14:01;;;;;;;2.57;2.37;;;16.10;99.90;;;;;;5094624;28;20553;-72
2022/07/15 02:16:29;;;;;;;4.27;1.80;;;15.90;99.90;;;;;;5088807;28;20493;-72
2022/07/15 02:18:57;;;;;;;5.83;2.50;;;16.10;99.90;;;;;;5089244;28;20468;-72
2022/07/15 02:21:24;;;;;;;3.80;1.80;;;16.20;99.90;;;;;;5086665;28;20443;-71
2022/07/15 02:23:50;;;;;;;4.63;2.40;;;16.30;99.90;;;;;;5086902;28;20513;-71
2022/07/15 02:26:17;;;;;;;5.53;2.10;;;16.40;99.90;;;;;;5109650;22;20949;-71
2022/07/15 02:28:44;;;;;;;7.43;2.33;;;16.20;99.90;;;;;;5103952;27;21102;-71
2022/07/15 02:31:12;;;;;;;4.70;2.30;;;16.10;99.90;;;;;;5109232;27;20432;-72
2022/07/15 02:33:39;;;;;;;2.53;1.70;;;16.20;99.90;;;;;;5112681;27;20452;-71
2022/07/15 02:36:07;;;;;;;9.33;2.07;;;16.10;99.90;;;;;;5109381;27;20438;-72
2022/07/15 02:38:34;;;;;;;6.03;4.60;;;15.90;99.90;;;;;;5084491;28;20440;-72
2022/07/15 02:41:02;;;;;;;4.60;2.03;;;16.00;99.90;;;;;;5080365;28;20454;-72
2022/07/15 02:43:29;;;;;;;10.00;2.50;;;15.90;99.90;;;;;;5084626;28;20481;-72
2022/07/15 02:45:56;;;;;;;2.70;2.30;;;15.70;99.90;;;;;;5087041;28;20577;-72
2022/07/15 02:48:24;;;;;;;12.33;2.70;;;15.70;99.90;;;;;;5078028;28;20483;-72
2022/07/15 02:50:51;;;;;;;9.57;2.57;;;15.70;99.90;;;;;;5083158;28;20462;-72
2022/07/15 02:53:20;;;;;;;3.33;1.60;;;15.60;99.90;;;;;;5084538;28;20472;-72
2022/07/15 02:55:48;;;;;;;2.07;1.83;;;15.60;99.90;;;;;;5086052;28;20938;-71
2022/07/15 02:58:15;;;;;;;4.67;2.13;;;15.30;99.90;;;;;;5075775;28;21245;-71
2022/07/15 03:00:42;;;;;;;5.87;2.67;;;15.00;99.90;;;;;;5087707;28;20453;-71
2022/07/15 03:03:09;;;;;;;12.83;2.30;;;14.80;99.90;;;;;;5087792;28;20451;-72
2022/07/15 03:05:37;;;;;;;6.80;2.20;;;14.60;99.90;;;;;;5086011;28;20477;-71
2022/07/15 03:08:04;;;;;;;3.63;1.87;;;14.40;99.90;;;;;;5088926;27;21175;-71
2022/07/15 03:10:31;;;;;;;2.73;2.20;;;14.50;99.90;;;;;;5090403;27;20888;-72
2022/07/15 03:12:58;;;;;;;5.40;2.43;;;14.50;99.90;;;;;;5090509;27;21879;-72
2022/07/15 03:15:25;;;;;;;3.97;2.60;;;14.60;99.90;;;;;;5097755;27;20453;-72
2022/07/15 03:17:52;;;;;;;4.80;3.30;;;14.90;99.90;;;;;;5089659;27;20557;-72
2022/07/15 03:20:18;;;;;;;12.23;2.37;;;14.70;99.90;;;;;;5087609;27;20486;-72
2022/07/15 03:22:47;;;;;;;2.93;2.67;;;14.60;99.90;;;;;;5090571;27;20486;-72
2022/07/15 03:25:13;;;;;;;2.10;1.90;;;14.50;99.90;;;;;;5092812;27;20461;-72
2022/07/15 03:27:40;;;;;;;5.27;2.63;;;14.40;99.90;;;;;;5085705;27;21093;-72
2022/07/15 03:30:08;;;;;;;3.27;1.77;;;14.60;99.90;;;;;;5091674;27;20493;-72
2022/07/15 03:32:35;;;;;;;4.07;2.57;;;14.50;99.90;;;;;;5089363;27;20433;-72
2022/07/15 03:35:02;;;;;;;8.30;2.70;;;14.70;99.90;;;;;;5100334;27;20538;-72
2022/07/15 03:37:28;;;;;;;11.67;3.33;;;14.90;99.90;;;;;;5084065;27;21246;-72
2022/07/15 03:39:57;;;;;;;2.83;2.30;;;15.00;99.90;;;;;;5080204;27;20465;-72
2022/07/15 03:42:23;;;;;;;6.43;2.70;;;15.00;99.90;;;;;;5089694;27;20443;-72
2022/07/15 03:44:50;;;;;;;5.10;2.70;;;15.20;99.90;;;;;;5084150;27;20861;-73
2022/07/15 03:47:17;;;;;;;4.30;2.30;;;15.20;99.90;;;;;;5084919;27;20474;-72
2022/07/15 03:49:44;;;;;;;2.87;2.50;;;15.20;99.90;;;;;;5090125;27;21012;-72
2022/07/15 03:52:11;;;;;;;3.13;2.23;;;15.20;99.90;;;;;;5091155;27;20460;-72
2022/07/15 03:54:38;;;;;;;3.00;2.03;;;15.20;99.90;;;;;;5091652;27;20465;-71
2022/07/15 03:57:06;;;;;;;2.93;2.30;;;15.10;99.90;;;;;;5084122;27;20448;-72
2022/07/15 03:59:33;;;;;;;4.30;2.80;;;15.20;99.90;;;;;;5095293;27;20457;-73
2022/07/15 04:02:00;;;;;;;5.40;2.20;;;15.20;99.90;;;;;;5086849;27;20460;-72
2022/07/15 04:04:27;;;;;;;6.90;2.80;;;15.40;99.90;;;;;;5086663;27;20566;-72
2022/07/15 04:06:54;;;;;;;4.07;3.13;;;15.30;99.90;;;;;;5093690;27;20493;-72
2022/07/15 04:09:20;;;;;;;4.97;2.40;;;15.20;99.90;;;;;;5098641;27;20477;-72
2022/07/15 04:11:47;;;;;;;7.60;2.20;;;15.20;99.90;;;;;;5100010;27;20956;-72
2022/07/15 04:14:17;;;;;;;6.97;2.80;;;15.20;99.90;;;;;;5101875;27;20486;-72
2022/07/15 04:16:45;;;;;;;7.07;2.43;;;15.10;99.90;;;;;;5095191;27;20481;-72
2022/07/15 04:19:12;;;;;;;3.63;2.70;;;15.10;99.90;;;;;;5091644;27;20746;-72
2022/07/15 04:21:38;;;;;;;6.33;2.30;;;14.90;99.90;;;;;;5093395;27;20445;-71
2022/07/15 04:24:06;;;;;;;4.53;2.23;;;14.90;99.90;;;;;;5093766;27;20453;-72
2022/07/15 04:26:32;;;;;;;3.13;1.90;;;14.90;99.90;;;;;;5080522;27;20564;-71
2022/07/15 04:28:59;;;;;;;8.30;2.70;;;15.00;99.90;;;;;;5091691;27;20458;-71
2022/07/15 04:31:27;;;;;;;4.40;2.50;;;15.00;99.90;;;;;;5087356;27;20816;-71
2022/07/15 04:33:54;;;;;;;2.57;2.37;;;15.10;99.90;;;;;;5083235;27;20446;-71
2022/07/15 04:36:21;;;;;;;6.07;2.60;;;15.10;99.90;;;;;;5087791;27;21148;-72
2022/07/15 04:38:48;;;;;;;6.20;2.30;;;15.20;99.90;;;;;;5086637;28;20955;-71
2022/07/15 04:41:15;;;;;;;12.03;2.20;;;15.10;99.90;;;;;;5098071;27;20865;-73
2022/07/15 04:43:42;;;;;;;4.80;2.50;;;15.20;99.90;;;;;;5091964;27;21034;-72
2022/07/15 04:46:09;;;;;;;2.83;2.30;;;15.20;99.90;;;;;;5093016;27;21005;-71
2022/07/15 04:51:23;;;;;;;4.00;2.70;;;15.30;99.90;;;;;;5097088;27;20445;-71
2022/07/15 04:53:53;;;;;;;2.80;1.80;;;15.40;99.90;;;;;;5092841;27;20942;-72
2022/07/15 04:56:20;;;;;;;2.93;2.07;;;15.50;99.90;;;;;;5077698;27;20454;-72
2022/07/15 04:58:56;;;;;;;8.23;3.13;;;15.40;99.90;;;;;;5092827;27;20633;-72
2022/07/15 05:01:22;;;;;;;7.83;2.77;;;15.30;99.90;;;;;;5094826;27;20446;-72
2022/07/15 05:03:51;;;;;;;4.20;2.60;;;15.40;99.90;;;;;;5096066;27;20453;-70
2022/07/15 05:06:17;;;;;;;3.80;2.00;;;15.80;99.90;;;;;;5095756;27;20847;-70
2022/07/15 05:08:44;;;;;;;3.00;2.43;;;16.00;99.90;;;;;;5095596;27;20470;-71
2022/07/15 05:11:11;;;;;;;13.30;2.40;;;16.10;99.90;;;;;;5098621;27;20536;-71
2022/07/15 05:13:38;;;;;;;9.77;2.70;;;16.10;99.90;;;;;;5093698;27;20467;-71
2022/07/15 05:16:05;;;;;;;3.97;2.67;;;16.20;99.90;;;;;;5097967;27;20891;-72
2022/07/15 05:18:32;;;;;;;3.20;1.90;;;16.50;99.90;;;;;;5095300;28;20954;-72
2022/07/15 05:21:00;;;;;;;10.90;3.53;;;16.80;99.90;;;;;;5093329;28;20480;-72
2022/07/15 05:23:27;;;;;;;2.60;1.87;;;17.40;99.90;;;;;;5099329;27;20491;-72
2022/07/15 05:25:54;;;;;;;8.00;2.27;;;17.80;99.90;;;;;;5097805;27;20544;-72
2022/07/15 05:28:21;;;;;;;3.70;2.43;;;18.10;99.90;;;;;;5099219;27;20481;-71
2022/07/15 05:30:48;;;;;;;2.63;1.80;;;18.10;99.90;;;;;;5091731;27;20516;-72
2022/07/15 05:33:17;;;;;;;4.90;1.77;;;18.00;99.90;;;;;;5099000;27;20458;-72
2022/07/15 05:35:44;;;;;;;3.20;2.13;;;18.60;99.90;;;;;;5100391;27;20471;-72
2022/07/15 05:38:12;;;;;;;2.50;1.80;;;18.70;99.90;;;;;;5094280;28;20849;-71
2022/07/15 05:40:39;;;;;;;6.57;1.80;;;18.70;99.90;;;;;;5098401;27;20962;-71
2022/07/15 05:43:06;;;;;;;14.40;2.90;;;18.10;99.90;;;;;;5091243;27;20458;-72
2022/07/15 05:45:35;;;;;;;2.63;2.30;;;17.90;99.90;;;;;;5090721;28;20470;-72
2022/07/15 05:48:02;;;;;;;2.10;1.37;;;18.00;99.90;;;;;;5100139;27;21074;-72
2022/07/15 05:50:29;;;;;;;5.37;2.23;;;18.00;99.90;;;;;;5087448;28;20470;-71
2022/07/15 05:52:56;;;;;;;3.43;1.67;;;17.70;99.90;;;;;;5089735;27;20470;-72
2022/07/15 05:55:24;;;;;;;3.17;2.07;;;17.40;99.90;;;;;;5092175;27;20455;-72
2022/07/15 05:57:51;;;;;;;4.77;1.43;;;17.80;99.90;;;;;;5088741;28;20544;-72
2022/07/15 06:00:18;;;;;;;3.53;1.70;;;18.40;99.90;;;;;;5086779;28;20564;-72
2022/07/15 06:02:44;;;;;;;8.40;2.60;;;19.20;99.90;;;;;;5091708;27;20811;-73
2022/07/15 06:05:12;;;;;;;8.50;2.00;;;19.70;99.90;;;;;;5092521;27;20528;-72
2022/07/15 06:07:39;;;;;;;8.90;1.60;;;20.00;99.90;;;;;;5093099;27;20473;-72
2022/07/15 06:10:08;;;;;;;4.93;2.00;;;20.30;99.90;;;;;;5092162;27;20620;-72
2022/07/15 06:12:36;;;;;;;2.93;1.90;;;20.90;99.90;;;;;;5095781;27;20461;-73
2022/07/15 06:15:03;;;;;;;5.30;2.40;;;21.20;99.90;;;;;;5091133;27;20800;-72
2022/07/15 06:17:31;;;;;;;4.80;1.70;;;21.30;99.90;;;;;;5093565;27;20488;-72
2022/07/15 06:19:58;;;;;;;6.57;2.00;;;21.20;99.90;;;;;;5097157;27;20846;-72
2022/07/15 06:22:24;;;;;;;2.93;2.17;;;21.60;99.90;;;;;;5088368;27;20444;-72
2022/07/15 06:24:51;;;;;;;6.50;1.70;;;21.90;99.90;;;;;;5095883;27;20830;-72
2022/07/15 06:27:18;;;;;;;4.00;1.83;;;21.90;99.90;;;;;;5091571;28;20900;-72
2022/07/15 06:29:46;;;;;;;3.87;1.50;;;22.30;99.90;;;;;;5093386;27;20444;-72
2022/07/15 06:32:13;;;;;;;2.57;1.20;;;22.20;99.90;;;;;;5088103;28;20453;-72
2022/07/15 06:34:40;;;;;;;3.37;2.50;;;22.00;99.90;;;;;;5096136;27;20612;-71
2022/07/15 06:37:07;;;;;;;6.60;1.20;;;21.70;99.90;;;;;;5090956;28;20449;-72
2022/07/15 06:39:34;;;;;;;3.03;1.37;;;21.50;99.90;;;;;;5091770;28;20976;-71
2022/07/15 06:42:00;;;;;;;3.20;1.10;;;21.50;99.90;;;;;;5096811;27;20437;-72
2022/07/15 06:44:27;;;;;;;2.07;1.00;;;21.80;99.90;;;;;;5087965;28;20478;-71
2022/07/15 06:46:56;;;;;;;2.40;1.17;;;21.90;99.90;;;;;;5089201;28;20484;-71
2022/07/15 06:49:23;;;;;;;5.70;1.60;;;21.70;99.90;;;;;;5091230;28;20437;-71
2022/07/15 06:51:51;;;;;;;2.30;1.23;;;20.90;99.90;;;;;;5094586;28;20532;-73
2022/07/15 06:54:18;;;;;;;3.03;1.53;;;20.60;99.90;;;;;;5091820;28;20500;-72
2022/07/15 06:56:46;;;;;;;2.50;1.00;;;20.20;99.90;;;;;;5091629;28;20453;-72
2022/07/15 06:59:12;;;;;;;2.03;1.10;;;20.10;99.90;;;;;;5088419;28;20450;-72
2022/07/15 07:01:39;;;;;;;5.20;1.80;;;20.90;99.90;;;;;;5088789;28;20454;-70
2022/07/15 07:04:07;;;;;;;4.23;1.50;;;21.30;99.90;;;;;;5093883;28;20812;-71
2022/07/15 07:06:34;;;;;;;4.67;1.70;;;21.30;99.90;;;;;;5087691;28;20482;-72
2022/07/15 07:09:01;;;;;;;4.60;1.60;;;20.60;99.90;;;;;;5090819;28;20442;-71
2022/07/15 07:11:28;;;;;;;4.30;1.20;;;20.20;99.90;;;;;;5095234;28;20643;-71
2022/07/15 07:13:55;;;;;;;3.70;1.50;;;19.70;99.90;;;;;;5086580;28;20990;-72
2022/07/15 07:16:22;;;;;;;3.10;1.07;;;19.50;99.90;;;;;;5090977;28;20891;-72
2022/07/15 07:18:50;;;;;;;5.80;1.67;;;20.60;99.90;;;;;;5093325;28;20454;-71
2022/07/15 07:21:18;;;;;;;7.97;3.03;;;21.20;99.90;;;;;;5090173;28;20515;-72
2022/07/15 07:23:46;;;;;;;2.00;1.37;;;21.50;99.90;;;;;;5093248;28;20442;-71
2022/07/15 07:26:14;;;;;;;4.03;1.37;;;21.90;99.90;;;;;;5089718;28;20475;-71
2022/07/15 07:28:42;;;;;;;6.50;1.27;;;21.90;99.90;;;;;;5094708;28;20439;-71
2022/07/15 07:31:10;;;;;;;2.37;1.03;;;21.80;99.90;;;;;;5078014;28;21719;-72
2022/07/15 07:33:37;;;;;;;1.90;1.20;;;21.50;99.90;;;;;;5090792;28;20438;-73
2022/07/15 07:36:05;;;;;;;5.13;1.70;;;22.10;99.90;;;;;;5089544;28;20476;-72
2022/07/15 07:38:36;;;;;;;2.10;1.13;;;22.40;99.90;;;;;;5092067;28;22379;-71
2022/07/15 07:41:03;;;;;;;3.87;2.93;;;22.70;99.90;;;;;;5089592;28;20457;-72
2022/07/15 07:43:32;;;;;;;2.63;1.17;;;22.00;99.90;;;;;;5095804;28;20538;-72
2022/07/15 07:45:59;;;;;;;3.37;1.30;;;21.50;99.90;;;;;;5089018;28;20458;-71
2022/07/15 07:48:26;;;;;;;4.03;1.50;;;21.90;99.90;;;;;;5090079;28;20501;-71
2022/07/15 07:50:53;;;;;;;4.07;1.43;;;22.10;99.90;;;;;;5092724;28;20518;-72
2022/07/15 07:53:21;;;;;;;2.53;1.20;;;21.90;99.90;;;;;;5095893;28;20441;-72
2022/07/15 07:55:50;;;;;;;2.17;1.20;;;21.50;99.90;;;;;;5090335;28;20540;-71
2022/07/15 07:58:17;;;;;;;4.37;1.33;;;21.30;99.90;;;;;;5097700;27;20444;-72
2022/07/15 08:00:45;;;;;;;3.30;1.63;;;20.90;99.90;;;;;;5093751;27;20716;-72
2022/07/15 08:03:12;;;;;;;3.10;1.50;;;20.50;99.90;;;;;;5095187;27;21962;-72
2022/07/15 08:05:39;;;;;;;4.63;1.70;;;20.00;99.90;;;;;;5094334;27;20541;-72
2022/07/15 08:08:11;;;;;;;2.10;1.60;;;20.10;99.90;;;;;;5101297;27;20489;-72
2022/07/15 08:10:39;;;;;;;4.33;1.63;;;19.90;99.90;;;;;;5095381;27;20820;-71
2022/07/15 08:13:07;;;;;;;5.50;1.70;;;21.00;99.90;;;;;;5095022;27;20467;-71
2022/07/15 08:15:34;;;;;;;2.50;1.60;;;22.30;99.90;;;;;;5096877;27;20885;-71
2022/07/15 08:18:02;;;;;;;4.17;1.30;;;23.50;99.90;;;;;;5095134;27;20461;-71
2022/07/15 08:20:29;;;;;;;3.10;1.90;;;23.50;99.90;;;;;;5096158;27;20583;-72
2022/07/15 08:22:59;;;;;;;5.13;1.70;;;23.60;99.90;;;;;;5092158;27;20474;-72
2022/07/15 08:25:27;;;;;;;3.47;1.70;;;24.50;99.90;;;;;;5094840;27;20488;-72
2022/07/15 08:27:54;;;;;;;7.20;1.87;;;25.30;99.90;;;;;;5094061;27;20988;-72
2022/07/15 08:30:22;;;;;;;4.57;1.17;;;24.80;99.90;;;;;;5089049;27;20442;-72
2022/07/15 08:32:49;;;;;;;1.67;1.03;;;24.80;99.90;;;;;;5094544;27;20939;-72
2022/07/15 08:35:16;;;;;;;3.40;1.20;;;24.80;99.90;;;;;;5089897;27;21114;-73
2022/07/15 08:37:43;;;;;;;4.50;1.60;;;24.50;99.30;;;;;;5094348;27;20549;-72
2022/07/15 08:42:41;;;;;;;5.13;1.90;;;23.50;99.90;;;;;;5078118;28;20487;-72
2022/07/15 08:45:09;;;;;;;3.30;1.27;;;22.70;99.90;;;;;;5072025;28;20439;-71
2022/07/15 08:47:39;;;;;;;3.53;1.57;;;22.20;99.90;;;;;;5075671;28;20569;-73
2022/07/15 08:50:06;;;;;;;4.93;1.33;;;22.00;99.90;;;;;;5058756;28;20480;-72
2022/07/15 08:52:35;;;;;;;5.17;2.30;;;21.30;99.90;;;;;;5054185;28;20436;-72
2022/07/15 08:55:01;;;;;;;1.87;1.20;;;21.20;99.90;;;;;;5055069;28;20546;-72
2022/07/15 08:57:29;;;;;;;2.40;1.50;;;21.20;99.90;;;;;;5044522;28;20462;-72
2022/07/15 08:59:56;;;;;;;2.60;1.57;;;21.90;99.90;;;;;;5046332;28;20470;-71
2022/07/15 09:02:23;;;;;;;1.70;1.40;;;23.40;99.90;;;;;;5050671;28;20543;-74
2022/07/15 09:05:21;;;;;;;2.03;1.40;;;24.80;99.90;;;;;;5048620;28;20875;-72
2022/07/15 09:07:54;;;;;;;3.40;1.50;;;26.40;96.70;;;;;;5046351;28;20482;-72
2022/07/15 09:10:21;;;;;;;2.33;1.57;;;27.60;93.30;;;;;;5046931;28;20460;-73
2022/07/15 09:12:50;;;;;;;3.80;1.43;;;26.90;92.80;;;;;;5046052;28;20456;-73
2022/07/15 09:15:33;;;;;;;2.07;1.33;;;26.30;92.60;;;;;;5044734;28;20440;-73
2022/07/15 09:18:08;;;;;;;4.87;1.60;;;25.80;93.30;;;;;;5044950;28;20938;-72
2022/07/15 09:20:37;;;;;;;1.60;1.10;;;25.60;93.60;;;;;;5045322;28;20463;-73
2022/07/15 09:23:04;;;;;;;6.73;2.30;;;26.00;93.70;;;;;;5044546;28;20832;-73
2022/07/15 09:25:34;;;;;;;2.60;1.20;;;25.40;92.40;;;;;;5037790;28;20471;-73
2022/07/15 09:28:02;;;;;;;2.70;1.27;;;26.20;93.10;;;;;;5043531;28;21044;-73
2022/07/15 09:33:36;;;;;;;3.93;1.70;;;26.50;91.00;;;;;;5044529;28;20956;-72
2022/07/15 09:36:10;;;;;;;2.17;0.90;;;26.30;90.70;;;;;;5049817;28;20442;-74
2022/07/15 09:38:41;;;;;;;4.50;1.30;;;25.40;90.60;;;;;;5041652;28;20470;-72
2022/07/15 09:41:10;;;;;;;1.83;1.17;;;24.50;92.60;;;;;;5041682;28;20575;-73
2022/07/15 09:43:46;;;;;;;1.97;1.70;;;24.00;93.10;;;;;;5044537;28;20448;-73
2022/07/15 09:46:13;;;;;;;3.33;1.30;;;23.60;94.70;;;;;;5043780;28;20452;-73
2022/07/15 09:48:41;;;;;;;2.73;1.13;;;23.70;94.60;;;;;;5045502;28;21018;-73
2022/07/15 09:51:10;;;;;;;1.80;1.33;;;23.90;93.70;;;;;;5044711;28;20621;-73
2022/07/15 09:53:37;;;;;;;3.00;1.57;;;24.70;92.10;;;;;;5040383;28;20448;-73
2022/07/15 09:56:07;;;;;;;3.30;1.10;;;25.40;92.50;;;;;;5039665;28;20587;-73
2022/07/15 09:58:37;;;;;;;2.17;1.30;;;26.60;90.50;;;;;;5043541;28;20440;-73
2022/07/15 10:01:04;;;;;;;1.60;1.03;;;27.60;86.90;;;;;;5036098;28;20539;-73
2022/07/15 10:03:33;;;;;;;3.83;1.20;;;28.10;85.70;;;;;;5038115;28;20459;-74
2022/07/15 10:06:02;;;;;;;1.73;1.00;;;27.50;83.10;;;;;;5042775;28;20825;-73
2022/07/15 10:08:31;;;;;;;3.93;1.87;;;26.10;86.60;;;;;;5041362;28;20487;-73
2022/07/15 10:10:58;;;;;;;3.20;1.30;;;25.40;87.70;;;;;;5038190;28;20485;-72
2022/07/15 10:13:46;;;;;;;3.13;1.43;;;24.80;88.20;;;;;;5043622;28;20999;-72
2022/07/15 10:16:36;;;;;;;2.90;1.30;;;24.70;90.40;;;;;;5044326;28;20961;-72
2022/07/15 10:19:11;;;;;;;1.40;1.00;;;25.00;90.80;;;;;;5044087;28;20668;-73
2022/07/15 10:21:45;;;;;;;1.93;1.13;;;25.00;90.30;;;;;;5042993;28;20449;-72
2022/07/15 10:24:46;;;;;;;3.40;1.57;;;24.60;90.60;;;;;;5046697;28;20863;-73
2022/07/15 10:27:39;;;;;;;2.00;1.10;;;24.60;90.30;;;;;;5041843;28;20825;-73
2022/07/15 10:30:08;;;;;;;2.33;1.10;;;24.20;90.30;;;;;;5038256;28;20491;-72
2022/07/15 10:33:13;;;;;;;2.00;1.20;;;25.00;90.90;;;;;;5039971;28;20832;-73
2022/07/15 10:35:43;;;;;;;3.13;1.23;;;25.70;88.10;;;;;;5044915;28;20447;-73
2022/07/15 10:38:31;;;;;;;3.43;1.10;;;25.30;87.90;;;;;;5042858;28;21159;-72
2022/07/15 10:41:02;;;;;;;5.93;1.60;;;24.50;89.20;;;;;;5042868;28;20656;-72
2022/07/15 10:43:47;;;;;;;3.03;1.40;;;24.10;90.30;;;;;;5044574;28;20588;-72
2022/07/15 10:46:30;;;;;;;1.73;1.00;;;23.90;89.00;;;;;;5039588;28;20830;-73
2022/07/15 10:49:31;;;;;;;2.87;1.30;;;23.50;89.70;;;;;;5039264;28;20487;-72
2022/07/15 10:52:13;;;;;;;2.53;1.40;;;23.00;91.10;;;;;;5039308;28;20448;-72
2022/07/15 10:54:50;;;;;;;4.40;1.70;;;22.80;92.30;;;;;;5043683;28;20523;-73
2022/07/15 10:57:20;;;;;;;3.13;0.93;;;22.30;93.40;;;;;;5043597;28;20994;-73
2022/07/15 10:59:53;;;;;;;2.07;0.90;;;22.20;94.10;;;;;;5040063;28;20556;-73
2022/07/15 11:02:21;;;;;;;2.63;1.60;;;22.40;94.80;;;;;;5042624;28;20532;-73
2022/07/15 11:04:50;;;;;;;1.97;1.30;;;23.00;94.10;;;;;;5044489;28;20441;-73
2022/07/15 11:07:31;;;;;;;5.73;1.40;;;23.10;93.60;;;;;;5033882;28;20956;-73
2022/07/15 11:10:15;;;;;;;2.43;1.23;;;23.60;92.60;;;;;;5046565;28;20460;-72
2022/07/15 11:13:05;;;;;;;3.63;1.57;;;23.90;91.40;;;;;;5042919;28;20552;-72
2022/07/15 11:15:33;;;;;;;1.60;1.10;;;23.90;91.40;;;;;;5044680;28;20776;-72
2022/07/15 11:18:00;;;;;;;1.60;0.80;;;23.70;90.40;;;;;;5044832;28;20476;-72
2022/07/15 11:20:36;;;;;;;2.87;1.40;;;23.80;90.20;;;;;;5043995;28;20459;-72
2022/07/15 11:23:06;;;;;;;3.37;1.13;;;24.10;90.50;;;;;;5045126;28;20445;-72
2022/07/15 11:25:35;;;;;;;2.27;0.90;;;24.70;90.50;;;;;;5041804;28;20593;-73
2022/07/15 11:28:09;;;;;;;2.17;1.10;;;24.20;90.00;;;;;;5047227;28;20501;-73
2022/07/15 11:30:40;;;;;;;5.87;1.03;;;24.50;91.00;;;;;;5047926;28;20511;-72
2022/07/15 11:33:10;;;;;;;1.50;1.10;;;24.30;90.70;;;;;;5049543;28;20536;-73
2022/07/15 11:35:50;;;;;;;4.67;1.50;;;25.30;88.50;;;;;;5042964;28;20843;-73
2022/07/15 11:38:19;;;;;;;1.40;1.00;;;26.20;87.50;;;;;;5041704;28;20531;-73
2022/07/15 11:46:19;;;;;;;1.47;0.80;;;30.10;70.90;;;;;;5047228;28;20454;-75
2022/07/15 11:48:46;;;;;;;7.83;1.43;;;29.20;68.20;;;;;;5045424;28;20574;-73
2022/07/15 11:51:13;;;;;;;1.70;1.10;;;28.00;70.50;;;;;;5048009;28;20485;-73
2022/07/15 11:53:43;;;;;;;1.40;1.10;;;26.40;72.00;;;;;;5046343;28;20451;-73
2022/07/15 11:56:11;;;;;;;4.40;1.10;;;26.30;74.80;;;;;;5043464;28;20440;-72
2022/07/15 11:58:42;;;;;;;1.20;0.80;;;27.10;72.80;;;;;;5038894;28;20463;-73
2022/07/15 12:01:11;;;;;;;4.80;1.10;;;26.80;71.70;;;;;;5042800;28;20480;-72
2022/07/15 12:03:41;;;;;;;2.13;1.00;;;26.30;73.60;;;;;;5044669;28;20476;-72
2022/07/15 12:06:14;;;;;;;1.40;1.00;;;26.20;75.00;;;;;;5043726;28;20448;-72
2022/07/15 12:08:45;;;;;;;2.40;1.10;;;25.90;75.40;;;;;;5050009;28;20475;-71
2022/07/15 12:11:15;;;;;;;1.93;0.90;;;25.30;77.50;;;;;;5048028;28;20459;-73
2022/07/15 12:13:48;;;;;;;1.10;0.80;;;25.00;79.50;;;;;;5049328;28;20447;-72
2022/07/15 12:16:19;;;;;;;2.10;1.10;;;24.90;79.70;;;;;;5042238;28;20866;-73
2022/07/15 12:18:47;;;;;;;3.70;1.53;;;24.80;79.40;;;;;;5045983;28;20595;-72
2022/07/15 12:21:15;;;;;;;2.53;1.20;;;24.90;80.10;;;;;;5043026;28;20476;-73
2022/07/15 12:23:42;;;;;;;2.03;1.20;;;25.10;80.60;;;;;;5050532;28;20535;-72
2022/07/15 12:26:11;;;;;;;2.73;1.00;;;25.90;78.40;;;;;;5046457;28;20459;-72
2022/07/15 12:28:38;;;;;;;2.73;1.00;;;27.30;75.40;;;;;;5045507;28;21009;-72
2022/07/15 12:31:06;;;;;;;1.50;1.10;;;27.20;74.40;;;;;;5037812;28;20472;-73
2022/07/15 12:33:37;;;;;;;1.23;0.90;;;26.40;74.60;;;;;;5043102;28;20460;-73
2022/07/15 12:36:14;;;;;;;2.60;1.13;;;26.00;75.70;;;;;;5048959;28;20440;-73
2022/07/15 12:38:40;;;;;;;4.63;1.20;;;25.60;77.10;;;;;;5043002;28;20440;-72
2022/07/15 12:41:08;;;;;;;2.57;2.20;;;25.70;79.80;;;;;;5042995;28;20511;-72
2022/07/15 12:43:48;;;;;;;6.40;1.30;;;26.70;75.20;;;;;;5043541;28;20440;-72
2022/07/15 12:46:17;;;;;;;3.30;1.10;;;26.80;75.20;;;;;;5044436;28;20444;-73
2022/07/15 12:48:46;;;;;;;2.17;1.20;;;26.80;75.70;;;;;;5038415;28;20485;-73
2022/07/15 12:51:14;;;;;;;1.40;1.10;;;26.40;73.60;;;;;;5044350;28;21003;-72
2022/07/15 12:53:41;;;;;;;1.20;0.80;;;25.90;74.80;;;;;;5047500;28;20454;-73
2022/07/15 12:56:08;;;;;;;1.50;0.90;;;26.90;74.80;;;;;;5045801;28;20556;-73
2022/07/15 12:58:37;;;;;;;1.97;1.57;;;28.50;66.30;;;;;;5041655;28;20467;-73
2022/07/15 13:01:07;;;;;;;1.33;0.70;;;28.60;65.70;;;;;;5046076;28;20467;-72
2022/07/15 13:03:36;;;;;;;1.43;0.93;;;28.90;61.80;;;;;;5048239;28;20505;-73
2022/07/15 13:06:03;;;;;;;2.40;0.93;;;28.30;61.80;;;;;;5046428;28;20466;-72
2022/07/15 13:08:31;;;;;;;4.33;1.07;;;27.30;63.40;;;;;;5046827;28;20486;-72